首页
METAR-TAF:

METAR-TAF

机场 :

萨格勒布机场

萨格勒布, 克罗地亚

纬度: 45-44N, 经度: 016-04E, 海拔: 106米

当前天气观测

该预报发布于27分钟前的08:30 UTC
风速2节,风向多变
温度 12°C
湿度 76%
气压 1020 hPa
能见度10公里或以上
1500米以下无云,无积雨云

METAR: LDZA 220830Z VRB02KT CAVOK 12/08 Q1020 NOSIG

时间: 10:57 (08:57 UTC)

预报

该预报发布于3小时和32分钟前的05:25 UTC
预报有效从22日的 06点(UTC)到 23日的 06点(UTC)
风速2节,风向多变
能见度10公里或以上
1500米以下无云,无积雨云
短暂存在
从 22日的 12点(UTC)到 23日的 03点(UTC)
风速7节,风向西南

TAF: LDZA 220525Z 2206/2306 VRB02KT CAVOK TX20/2213Z TN05/2206Z TEMPO 2212/2303 23007KT

超过4000个机场的气象观测和天气预报(METAR&TAF报告)。

可查询的气象台以黄色和红色小点在地图上表示。

将鼠标移到小点上方,可查看气象台名称。

然后点击查看天气观测和预报。

如需切换地图:点击带黑十字的绿色按钮放大地图;点击带横线的绿色按钮缩小地图;或者点击绿色箭头查看邻近地区的地图。


METAR-TAF: